sensor_id;sensor_type;location;lat;lon;timestamp;P1;durP1;ratioP1;P2;durP2;ratioP2
63784;SDS011;49927;48.146;11.420;2023-09-12T00:00:45;15.88;;;13.68;;
63784;SDS011;49927;48.146;11.420;2023-09-12T00:03:11;15.80;;;14.10;;
63784;SDS011;49927;48.146;11.420;2023-09-12T00:05:39;16.00;;;13.50;;
63784;SDS011;49927;48.146;11.420;2023-09-12T00:08:06;16.95;;;14.38;;
63784;SDS011;49927;48.146;11.420;2023-09-12T00:10:34;16.02;;;13.27;;
63784;SDS011;49927;48.146;11.420;2023-09-12T00:13:01;14.27;;;12.77;;
63784;SDS011;49927;48.146;11.420;2023-09-12T00:15:28;16.13;;;12.68;;
63784;SDS011;49927;48.146;11.420;2023-09-12T00:17:55;17.35;;;13.70;;
63784;SDS011;49927;48.146;11.420;2023-09-12T00:20:21;15.55;;;13.52;;
63784;SDS011;49927;48.146;11.420;2023-09-12T00:22:48;15.95;;;13.02;;
63784;SDS011;49927;48.146;11.420;2023-09-12T00:25:15;15.07;;;13.25;;
63784;SDS011;49927;48.146;11.420;2023-09-12T00:27:43;15.13;;;13.52;;
63784;SDS011;49927;48.146;11.420;2023-09-12T00:30:10;14.50;;;12.93;;
63784;SDS011;49927;48.146;11.420;2023-09-12T00:32:38;16.70;;;12.88;;
63784;SDS011;49927;48.146;11.420;2023-09-12T00:35:05;14.70;;;13.15;;
63784;SDS011;49927;48.146;11.420;2023-09-12T00:37:32;16.33;;;13.70;;
63784;SDS011;49927;48.146;11.420;2023-09-12T00:40:00;14.48;;;13.07;;
63784;SDS011;49927;48.146;11.420;2023-09-12T00:42:27;15.80;;;13.67;;
63784;SDS011;49927;48.146;11.420;2023-09-12T00:44:55;16.17;;;14.37;;
63784;SDS011;49927;48.146;11.420;2023-09-12T00:47:22;16.33;;;14.18;;
63784;SDS011;49927;48.146;11.420;2023-09-12T00:49:49;15.02;;;13.45;;
63784;SDS011;49927;48.146;11.420;2023-09-12T00:52:22;15.20;;;13.50;;
63784;SDS011;49927;48.146;11.420;2023-09-12T00:54:50;15.20;;;12.85;;
63784;SDS011;49927;48.146;11.420;2023-09-12T00:57:16;15.38;;;13.75;;
63784;SDS011;49927;48.146;11.420;2023-09-12T00:59:43;15.35;;;13.70;;
63784;SDS011;49927;48.146;11.420;2023-09-12T01:02:12;15.40;;;13.02;;
63784;SDS011;49927;48.146;11.420;2023-09-12T01:04:41;15.00;;;13.43;;
63784;SDS011;49927;48.146;11.420;2023-09-12T01:07:08;16.40;;;13.60;;
63784;SDS011;49927;48.146;11.420;2023-09-12T01:09:35;15.57;;;13.63;;
63784;SDS011;49927;48.146;11.420;2023-09-12T01:12:02;16.58;;;14.85;;
63784;SDS011;49927;48.146;11.420;2023-09-12T01:14:29;17.23;;;14.82;;
63784;SDS011;49927;48.146;11.420;2023-09-12T01:16:56;15.32;;;13.82;;
63784;SDS011;49927;48.146;11.420;2023-09-12T01:19:25;16.48;;;14.65;;
63784;SDS011;49927;48.146;11.420;2023-09-12T01:24:44;17.07;;;15.37;;
63784;SDS011;49927;48.146;11.420;2023-09-12T01:27:21;17.35;;;15.32;;
63784;SDS011;49927;48.146;11.420;2023-09-12T01:29:49;17.33;;;15.53;;
63784;SDS011;49927;48.146;11.420;2023-09-12T01:32:19;17.93;;;15.40;;
63784;SDS011;49927;48.146;11.420;2023-09-12T01:34:46;17.30;;;15.50;;
63784;SDS011;49927;48.146;11.420;2023-09-12T01:37:13;17.48;;;15.57;;
63784;SDS011;49927;48.146;11.420;2023-09-12T01:39:40;16.77;;;14.85;;
63784;SDS011;49927;48.146;11.420;2023-09-12T01:42:07;17.35;;;15.43;;
63784;SDS011;49927;48.146;11.420;2023-09-12T01:44:36;17.02;;;15.23;;
63784;SDS011;49927;48.146;11.420;2023-09-12T01:47:04;17.10;;;15.27;;
63784;SDS011;49927;48.146;11.420;2023-09-12T01:49:32;16.65;;;14.85;;
63784;SDS011;49927;48.146;11.420;2023-09-12T01:51:59;16.38;;;14.68;;
63784;SDS011;49927;48.146;11.420;2023-09-12T01:54:26;16.92;;;14.93;;
63784;SDS011;49927;48.146;11.420;2023-09-12T01:56:54;16.03;;;14.43;;
63784;SDS011;49927;48.146;11.420;2023-09-12T01:59:21;21.48;;;15.25;;
63784;SDS011;49927;48.146;11.420;2023-09-12T02:01:49;17.38;;;15.55;;
63784;SDS011;49927;48.146;11.420;2023-09-12T02:04:15;17.63;;;15.40;;
63784;SDS011;49927;48.146;11.420;2023-09-12T02:06:42;17.85;;;15.95;;
63784;SDS011;49927;48.146;11.420;2023-09-12T02:09:09;17.30;;;15.38;;
63784;SDS011;49927;48.146;11.420;2023-09-12T02:11:36;17.33;;;15.60;;
63784;SDS011;49927;48.146;11.420;2023-09-12T02:14:03;17.55;;;15.75;;
63784;SDS011;49927;48.146;11.420;2023-09-12T02:16:30;22.02;;;17.17;;
63784;SDS011;49927;48.146;11.420;2023-09-12T02:18:59;19.25;;;16.45;;
63784;SDS011;49927;48.146;11.420;2023-09-12T02:21:26;17.60;;;15.57;;
63784;SDS011;49927;48.146;11.420;2023-09-12T02:23:53;18.08;;;15.77;;
63784;SDS011;49927;48.146;11.420;2023-09-12T02:26:19;18.77;;;16.10;;
63784;SDS011;49927;48.146;11.420;2023-09-12T02:28:46;18.63;;;14.88;;
63784;SDS011;49927;48.146;11.420;2023-09-12T02:31:13;18.30;;;15.68;;
63784;SDS011;49927;48.146;11.420;2023-09-12T02:33:40;17.20;;;15.20;;
63784;SDS011;49927;48.146;11.420;2023-09-12T02:36:08;19.73;;;16.50;;
63784;SDS011;49927;48.146;11.420;2023-09-12T02:38:35;17.75;;;15.85;;
63784;SDS011;49927;48.146;11.420;2023-09-12T02:41:02;18.73;;;15.93;;
63784;SDS011;49927;48.146;11.420;2023-09-12T02:43:28;17.55;;;15.30;;
63784;SDS011;49927;48.146;11.420;2023-09-12T02:45:55;18.33;;;15.52;;
63784;SDS011;49927;48.146;11.420;2023-09-12T02:48:22;20.67;;;16.40;;
63784;SDS011;49927;48.146;11.420;2023-09-12T02:50:49;17.42;;;15.35;;
63784;SDS011;49927;48.146;11.420;2023-09-12T02:53:17;18.05;;;16.13;;
63784;SDS011;49927;48.146;11.420;2023-09-12T02:55:44;18.67;;;16.63;;
63784;SDS011;49927;48.146;11.420;2023-09-12T02:58:11;18.42;;;15.55;;
63784;SDS011;49927;48.146;11.420;2023-09-12T03:00:38;20.20;;;17.15;;
63784;SDS011;49927;48.146;11.420;2023-09-12T03:03:05;21.48;;;17.73;;
63784;SDS011;49927;48.146;11.420;2023-09-12T03:05:32;18.88;;;16.75;;
63784;SDS011;49927;48.146;11.420;2023-09-12T03:07:59;20.85;;;17.13;;
63784;SDS011;49927;48.146;11.420;2023-09-12T03:10:27;21.23;;;16.88;;
63784;SDS011;49927;48.146;11.420;2023-09-12T03:12:53;17.77;;;15.88;;
63784;SDS011;49927;48.146;11.420;2023-09-12T03:15:20;21.42;;;17.38;;
63784;SDS011;49927;48.146;11.420;2023-09-12T03:17:47;18.30;;;16.08;;
63784;SDS011;49927;48.146;11.420;2023-09-12T03:20:14;18.50;;;16.17;;
63784;SDS011;49927;48.146;11.420;2023-09-12T03:22:41;19.67;;;16.73;;
63784;SDS011;49927;48.146;11.420;2023-09-12T03:25:08;19.58;;;17.42;;
63784;SDS011;49927;48.146;11.420;2023-09-12T03:27:36;20.20;;;17.63;;
63784;SDS011;49927;48.146;11.420;2023-09-12T03:30:03;19.35;;;17.35;;
63784;SDS011;49927;48.146;11.420;2023-09-12T03:32:31;18.63;;;16.63;;
63784;SDS011;49927;48.146;11.420;2023-09-12T03:34:58;18.70;;;16.70;;
63784;SDS011;49927;48.146;11.420;2023-09-12T03:37:25;19.50;;;16.90;;
63784;SDS011;49927;48.146;11.420;2023-09-12T03:39:51;20.15;;;17.75;;
63784;SDS011;49927;48.146;11.420;2023-09-12T03:42:18;18.73;;;16.70;;
63784;SDS011;49927;48.146;11.420;2023-09-12T03:44:47;19.80;;;17.13;;
63784;SDS011;49927;48.146;11.420;2023-09-12T03:47:13;22.58;;;16.48;;
63784;SDS011;49927;48.146;11.420;2023-09-12T03:49:40;19.25;;;17.23;;
63784;SDS011;49927;48.146;11.420;2023-09-12T03:52:07;18.83;;;16.20;;
63784;SDS011;49927;48.146;11.420;2023-09-12T03:54:34;18.65;;;16.65;;
63784;SDS011;49927;48.146;11.420;2023-09-12T03:57:01;20.50;;;18.30;;
63784;SDS011;49927;48.146;11.420;2023-09-12T03:59:27;18.08;;;16.08;;
63784;SDS011;49927;48.146;11.420;2023-09-12T04:01:55;21.67;;;18.23;;
63784;SDS011;49927;48.146;11.420;2023-09-12T04:04:22;20.60;;;18.40;;
63784;SDS011;49927;48.146;11.420;2023-09-12T04:06:49;21.23;;;17.95;;
63784;SDS011;49927;48.146;11.420;2023-09-12T04:09:16;23.50;;;20.05;;
63784;SDS011;49927;48.146;11.420;2023-09-12T04:11:43;22.63;;;19.70;;
63784;SDS011;49927;48.146;11.420;2023-09-12T04:14:13;22.80;;;19.52;;
63784;SDS011;49927;48.146;11.420;2023-09-12T04:16:40;20.25;;;17.98;;
63784;SDS011;49927;48.146;11.420;2023-09-12T04:19:08;19.73;;;17.63;;
63784;SDS011;49927;48.146;11.420;2023-09-12T04:21:36;21.45;;;18.90;;
63784;SDS011;49927;48.146;11.420;2023-09-12T04:24:03;21.58;;;18.75;;
63784;SDS011;49927;48.146;11.420;2023-09-12T04:26:30;21.20;;;18.10;;
63784;SDS011;49927;48.146;11.420;2023-09-12T04:28:56;20.90;;;18.35;;
63784;SDS011;49927;48.146;11.420;2023-09-12T04:31:25;22.73;;;18.92;;
63784;SDS011;49927;48.146;11.420;2023-09-12T04:33:52;20.75;;;18.55;;
63784;SDS011;49927;48.146;11.420;2023-09-12T04:36:21;20.05;;;17.40;;
63784;SDS011;49927;48.146;11.420;2023-09-12T04:38:48;19.63;;;17.60;;
63784;SDS011;49927;48.146;11.420;2023-09-12T04:41:14;19.37;;;17.27;;
63784;SDS011;49927;48.146;11.420;2023-09-12T04:43:41;19.83;;;17.63;;
63784;SDS011;49927;48.146;11.420;2023-09-12T04:46:08;23.50;;;19.00;;
63784;SDS011;49927;48.146;11.420;2023-09-12T04:48:35;21.77;;;19.10;;
63784;SDS011;49927;48.146;11.420;2023-09-12T04:51:02;20.10;;;17.90;;
63784;SDS011;49927;48.146;11.420;2023-09-12T04:53:30;21.15;;;18.27;;
63784;SDS011;49927;48.146;11.420;2023-09-12T04:55:57;23.95;;;18.10;;
63784;SDS011;49927;48.146;11.420;2023-09-12T04:58:24;20.50;;;18.30;;
63784;SDS011;49927;48.146;11.420;2023-09-12T05:00:51;19.77;;;17.63;;
63784;SDS011;49927;48.146;11.420;2023-09-12T05:03:17;20.92;;;16.45;;
63784;SDS011;49927;48.146;11.420;2023-09-12T05:05:45;18.50;;;16.30;;
63784;SDS011;49927;48.146;11.420;2023-09-12T05:08:11;20.10;;;17.15;;
63784;SDS011;49927;48.146;11.420;2023-09-12T05:10:40;21.55;;;17.92;;
63784;SDS011;49927;48.146;11.420;2023-09-12T05:13:06;18.85;;;16.83;;
63784;SDS011;49927;48.146;11.420;2023-09-12T05:15:33;24.30;;;18.05;;
63784;SDS011;49927;48.146;11.420;2023-09-12T05:18:00;19.23;;;17.05;;
63784;SDS011;49927;48.146;11.420;2023-09-12T05:20:27;21.23;;;17.63;;
63784;SDS011;49927;48.146;11.420;2023-09-12T05:22:54;21.40;;;16.77;;
63784;SDS011;49927;48.146;11.420;2023-09-12T05:25:21;23.17;;;16.65;;
63784;SDS011;49927;48.146;11.420;2023-09-12T05:27:49;18.63;;;15.50;;
63784;SDS011;49927;48.146;11.420;2023-09-12T05:30:16;19.92;;;15.20;;
63784;SDS011;49927;48.146;11.420;2023-09-12T05:32:43;19.73;;;16.23;;
63784;SDS011;49927;48.146;11.420;2023-09-12T05:35:10;17.88;;;14.80;;
63784;SDS011;49927;48.146;11.420;2023-09-12T05:37:47;16.25;;;14.55;;
63784;SDS011;49927;48.146;11.420;2023-09-12T05:40:14;19.17;;;14.80;;
63784;SDS011;49927;48.146;11.420;2023-09-12T05:42:41;17.95;;;14.68;;
63784;SDS011;49927;48.146;11.420;2023-09-12T05:45:11;18.27;;;14.88;;
63784;SDS011;49927;48.146;11.420;2023-09-12T05:47:38;20.20;;;15.80;;
63784;SDS011;49927;48.146;11.420;2023-09-12T05:50:05;18.30;;;14.88;;
63784;SDS011;49927;48.146;11.420;2023-09-12T05:52:33;17.13;;;14.27;;
63784;SDS011;49927;48.146;11.420;2023-09-12T05:55:00;16.40;;;14.57;;
63784;SDS011;49927;48.146;11.420;2023-09-12T05:57:27;18.15;;;14.32;;
63784;SDS011;49927;48.146;11.420;2023-09-12T05:59:54;17.00;;;14.82;;
63784;SDS011;49927;48.146;11.420;2023-09-12T06:02:22;16.83;;;13.70;;
63784;SDS011;49927;48.146;11.420;2023-09-12T06:04:49;18.25;;;14.38;;
63784;SDS011;49927;48.146;11.420;2023-09-12T06:07:15;19.42;;;14.18;;
63784;SDS011;49927;48.146;11.420;2023-09-12T06:09:42;18.52;;;13.60;;
63784;SDS011;49927;48.146;11.420;2023-09-12T06:12:09;14.48;;;12.30;;
63784;SDS011;49927;48.146;11.420;2023-09-12T06:14:37;17.25;;;13.05;;
63784;SDS011;49927;48.146;11.420;2023-09-12T06:17:04;18.90;;;13.30;;
63784;SDS011;49927;48.146;11.420;2023-09-12T06:19:32;16.15;;;13.13;;
63784;SDS011;49927;48.146;11.420;2023-09-12T06:21:59;17.30;;;13.82;;
63784;SDS011;49927;48.146;11.420;2023-09-12T06:24:26;15.82;;;12.65;;
63784;SDS011;49927;48.146;11.420;2023-09-12T06:26:53;16.13;;;12.10;;
63784;SDS011;49927;48.146;11.420;2023-09-12T06:29:19;15.13;;;12.70;;
63784;SDS011;49927;48.146;11.420;2023-09-12T06:31:46;15.13;;;11.97;;
63784;SDS011;49927;48.146;11.420;2023-09-12T06:34:13;13.85;;;11.57;;
63784;SDS011;49927;48.146;11.420;2023-09-12T06:36:42;14.93;;;11.40;;
63784;SDS011;49927;48.146;11.420;2023-09-12T06:39:08;15.73;;;11.57;;
63784;SDS011;49927;48.146;11.420;2023-09-12T06:41:35;15.48;;;11.30;;
63784;SDS011;49927;48.146;11.420;2023-09-12T06:44:02;13.40;;;11.27;;
63784;SDS011;49927;48.146;11.420;2023-09-12T06:46:29;15.57;;;11.40;;
63784;SDS011;49927;48.146;11.420;2023-09-12T06:48:56;13.10;;;10.88;;
63784;SDS011;49927;48.146;11.420;2023-09-12T06:51:23;16.35;;;11.15;;
63784;SDS011;49927;48.146;11.420;2023-09-12T06:53:52;13.63;;;11.25;;
63784;SDS011;49927;48.146;11.420;2023-09-12T06:56:19;13.43;;;10.80;;
63784;SDS011;49927;48.146;11.420;2023-09-12T06:58:46;14.35;;;10.90;;
63784;SDS011;49927;48.146;11.420;2023-09-12T07:01:13;15.13;;;11.07;;
63784;SDS011;49927;48.146;11.420;2023-09-12T07:03:40;14.57;;;10.85;;
63784;SDS011;49927;48.146;11.420;2023-09-12T07:06:07;13.43;;;11.18;;
63784;SDS011;49927;48.146;11.420;2023-09-12T07:08:35;16.80;;;11.32;;
63784;SDS011;49927;48.146;11.420;2023-09-12T07:11:03;17.08;;;11.38;;
63784;SDS011;49927;48.146;11.420;2023-09-12T07:13:31;12.93;;;10.30;;
63784;SDS011;49927;48.146;11.420;2023-09-12T07:15:58;13.38;;;11.00;;
63784;SDS011;49927;48.146;11.420;2023-09-12T07:18:25;14.57;;;11.07;;
63784;SDS011;49927;48.146;11.420;2023-09-12T07:20:56;24.13;;;11.00;;
63784;SDS011;49927;48.146;11.420;2023-09-12T07:23:23;18.40;;;10.38;;
63784;SDS011;49927;48.146;11.420;2023-09-12T07:25:50;17.92;;;10.48;;
63784;SDS011;49927;48.146;11.420;2023-09-12T07:28:18;14.30;;;10.37;;
63784;SDS011;49927;48.146;11.420;2023-09-12T07:30:45;16.92;;;9.75;;
63784;SDS011;49927;48.146;11.420;2023-09-12T07:33:12;12.65;;;9.98;;
63784;SDS011;49927;48.146;11.420;2023-09-12T07:35:39;13.07;;;9.73;;
63784;SDS011;49927;48.146;11.420;2023-09-12T07:38:06;10.70;;;9.53;;
63784;SDS011;49927;48.146;11.420;2023-09-12T07:40:33;13.18;;;9.82;;
63784;SDS011;49927;48.146;11.420;2023-09-12T07:43:00;13.50;;;9.93;;
63784;SDS011;49927;48.146;11.420;2023-09-12T07:45:28;11.48;;;9.60;;
63784;SDS011;49927;48.146;11.420;2023-09-12T07:47:55;12.27;;;9.45;;
63784;SDS011;49927;48.146;11.420;2023-09-12T07:50:22;15.43;;;9.35;;
63784;SDS011;49927;48.146;11.420;2023-09-12T07:52:49;15.88;;;10.00;;
63784;SDS011;49927;48.146;11.420;2023-09-12T07:55:15;17.17;;;9.75;;
63784;SDS011;49927;48.146;11.420;2023-09-12T07:57:42;14.48;;;9.60;;
63784;SDS011;49927;48.146;11.420;2023-09-12T08:00:10;14.25;;;9.48;;
63784;SDS011;49927;48.146;11.420;2023-09-12T08:02:38;12.65;;;9.52;;
63784;SDS011;49927;48.146;11.420;2023-09-12T08:05:06;10.25;;;9.23;;
63784;SDS011;49927;48.146;11.420;2023-09-12T08:07:33;11.68;;;9.63;;
63784;SDS011;49927;48.146;11.420;2023-09-12T08:10:00;12.82;;;9.50;;
63784;SDS011;49927;48.146;11.420;2023-09-12T08:12:27;13.40;;;10.85;;
63784;SDS011;49927;48.146;11.420;2023-09-12T08:14:54;10.75;;;8.80;;
63784;SDS011;49927;48.146;11.420;2023-09-12T08:17:21;12.13;;;9.32;;
63784;SDS011;49927;48.146;11.420;2023-09-12T08:19:50;10.65;;;9.20;;
63784;SDS011;49927;48.146;11.420;2023-09-12T08:22:17;10.25;;;9.18;;
63784;SDS011;49927;48.146;11.420;2023-09-12T08:24:44;11.40;;;9.30;;
63784;SDS011;49927;48.146;11.420;2023-09-12T08:27:11;11.00;;;9.45;;
63784;SDS011;49927;48.146;11.420;2023-09-12T08:29:38;14.25;;;11.13;;
63784;SDS011;49927;48.146;11.420;2023-09-12T08:32:05;15.43;;;12.75;;
63784;SDS011;49927;48.146;11.420;2023-09-12T08:34:32;13.68;;;9.93;;
63784;SDS011;49927;48.146;11.420;2023-09-12T08:37:00;10.88;;;8.57;;
63784;SDS011;49927;48.146;11.420;2023-09-12T08:39:27;12.70;;;10.65;;
63784;SDS011;49927;48.146;11.420;2023-09-12T08:41:54;12.98;;;11.32;;
63784;SDS011;49927;48.146;11.420;2023-09-12T08:44:21;12.53;;;9.60;;
63784;SDS011;49927;48.146;11.420;2023-09-12T08:46:48;11.70;;;9.38;;
63784;SDS011;49927;48.146;11.420;2023-09-12T08:49:15;10.83;;;9.40;;
63784;SDS011;49927;48.146;11.420;2023-09-12T08:51:42;41.97;;;37.03;;
63784;SDS011;49927;48.146;11.420;2023-09-12T08:54:10;11.60;;;10.40;;
63784;SDS011;49927;48.146;11.420;2023-09-12T08:56:39;12.20;;;9.75;;
63784;SDS011;49927;48.146;11.420;2023-09-12T08:59:06;11.27;;;9.85;;
63784;SDS011;49927;48.146;11.420;2023-09-12T09:01:33;9.95;;;9.05;;
63784;SDS011;49927;48.146;11.420;2023-09-12T09:04:01;9.75;;;8.75;;
63784;SDS011;49927;48.146;11.420;2023-09-12T09:06:28;10.60;;;9.50;;
63784;SDS011;49927;48.146;11.420;2023-09-12T09:08:57;11.75;;;10.35;;
63784;SDS011;49927;48.146;11.420;2023-09-12T09:11:26;11.15;;;9.77;;
63784;SDS011;49927;48.146;11.420;2023-09-12T09:13:52;10.70;;;9.60;;
63784;SDS011;49927;48.146;11.420;2023-09-12T09:16:19;9.70;;;8.70;;
63784;SDS011;49927;48.146;11.420;2023-09-12T09:18:53;9.30;;;8.40;;
63784;SDS011;49927;48.146;11.420;2023-09-12T09:21:22;10.38;;;8.57;;
63784;SDS011;49927;48.146;11.420;2023-09-12T09:23:49;9.70;;;8.80;;
63784;SDS011;49927;48.146;11.420;2023-09-12T09:26:17;9.60;;;8.57;;
63784;SDS011;49927;48.146;11.420;2023-09-12T09:28:45;11.35;;;9.15;;
63784;SDS011;49927;48.146;11.420;2023-09-12T09:31:12;10.27;;;9.27;;
63784;SDS011;49927;48.146;11.420;2023-09-12T09:33:40;10.07;;;8.65;;
63784;SDS011;49927;48.146;11.420;2023-09-12T09:36:07;9.93;;;8.90;;
63784;SDS011;49927;48.146;11.420;2023-09-12T09:38:34;9.82;;;8.82;;
63784;SDS011;49927;48.146;11.420;2023-09-12T09:41:03;10.30;;;9.27;;
63784;SDS011;49927;48.146;11.420;2023-09-12T09:43:31;11.77;;;9.20;;
63784;SDS011;49927;48.146;11.420;2023-09-12T09:45:59;9.52;;;8.52;;
63784;SDS011;49927;48.146;11.420;2023-09-12T09:48:26;9.90;;;8.90;;
63784;SDS011;49927;48.146;11.420;2023-09-12T09:50:53;10.70;;;9.13;;
63784;SDS011;49927;48.146;11.420;2023-09-12T09:53:26;9.75;;;8.85;;
63784;SDS011;49927;48.146;11.420;2023-09-12T09:56:00;9.85;;;8.95;;
63784;SDS011;49927;48.146;11.420;2023-09-12T09:58:34;10.15;;;8.73;;
63784;SDS011;49927;48.146;11.420;2023-09-12T10:01:02;9.43;;;8.52;;
63784;SDS011;49927;48.146;11.420;2023-09-12T10:03:31;13.02;;;9.07;;
63784;SDS011;49927;48.146;11.420;2023-09-12T10:05:59;9.45;;;8.55;;
63784;SDS011;49927;48.146;11.420;2023-09-12T10:08:30;10.88;;;8.90;;
63784;SDS011;49927;48.146;11.420;2023-09-12T10:10:58;9.90;;;8.80;;
63784;SDS011;49927;48.146;11.420;2023-09-12T10:13:25;9.77;;;8.18;;
63784;SDS011;49927;48.146;11.420;2023-09-12T10:15:53;9.90;;;7.93;;
63784;SDS011;49927;48.146;11.420;2023-09-12T10:18:22;7.85;;;7.03;;
63784;SDS011;49927;48.146;11.420;2023-09-12T10:20:58;10.98;;;8.43;;
63784;SDS011;49927;48.146;11.420;2023-09-12T10:23:30;10.57;;;8.38;;
63784;SDS011;49927;48.146;11.420;2023-09-12T10:26:00;10.05;;;8.00;;
63784;SDS011;49927;48.146;11.420;2023-09-12T10:28:28;9.40;;;8.40;;
63784;SDS011;49927;48.146;11.420;2023-09-12T10:30:55;9.00;;;7.70;;
63784;SDS011;49927;48.146;11.420;2023-09-12T10:33:25;8.18;;;7.47;;
63784;SDS011;49927;48.146;11.420;2023-09-12T10:35:52;8.75;;;7.85;;
63784;SDS011;49927;48.146;11.420;2023-09-12T10:38:19;7.85;;;6.78;;
63784;SDS011;49927;48.146;11.420;2023-09-12T10:40:47;9.43;;;8.43;;
63784;SDS011;49927;48.146;11.420;2023-09-12T10:43:15;8.98;;;7.82;;
63784;SDS011;49927;48.146;11.420;2023-09-12T10:45:41;8.80;;;7.88;;
63784;SDS011;49927;48.146;11.420;2023-09-12T10:48:10;8.50;;;7.70;;
63784;SDS011;49927;48.146;11.420;2023-09-12T10:50:39;7.93;;;7.13;;
63784;SDS011;49927;48.146;11.420;2023-09-12T10:53:12;8.82;;;7.40;;
63784;SDS011;49927;48.146;11.420;2023-09-12T10:55:40;8.98;;;8.07;;
63784;SDS011;49927;48.146;11.420;2023-09-12T10:58:09;8.38;;;7.38;;
63784;SDS011;49927;48.146;11.420;2023-09-12T11:00:36;9.18;;;7.85;;
63784;SDS011;49927;48.146;11.420;2023-09-12T11:06:05;8.55;;;7.65;;
63784;SDS011;49927;48.146;11.420;2023-09-12T11:08:47;7.77;;;7.00;;
63784;SDS011;49927;48.146;11.420;2023-09-12T11:11:42;7.72;;;6.45;;
63784;SDS011;49927;48.146;11.420;2023-09-12T11:14:09;8.18;;;7.40;;
63784;SDS011;49927;48.146;11.420;2023-09-12T11:16:36;8.18;;;6.85;;
63784;SDS011;49927;48.146;11.420;2023-09-12T11:19:16;7.78;;;6.97;;
63784;SDS011;49927;48.146;11.420;2023-09-12T11:21:45;8.07;;;7.38;;
63784;SDS011;49927;48.146;11.420;2023-09-12T11:24:12;9.17;;;7.50;;
63784;SDS011;49927;48.146;11.420;2023-09-12T11:26:52;8.65;;;7.20;;
63784;SDS011;49927;48.146;11.420;2023-09-12T11:29:26;8.37;;;7.43;;
63784;SDS011;49927;48.146;11.420;2023-09-12T11:31:54;8.83;;;7.93;;
63784;SDS011;49927;48.146;11.420;2023-09-12T11:34:21;8.82;;;7.93;;
63784;SDS011;49927;48.146;11.420;2023-09-12T11:36:54;8.73;;;7.60;;
63784;SDS011;49927;48.146;11.420;2023-09-12T11:39:22;9.82;;;7.80;;
63784;SDS011;49927;48.146;11.420;2023-09-12T11:41:49;8.68;;;7.80;;
63784;SDS011;49927;48.146;11.420;2023-09-12T11:44:16;9.07;;;8.10;;
63784;SDS011;49927;48.146;11.420;2023-09-12T11:46:43;9.60;;;7.77;;
63784;SDS011;49927;48.146;11.420;2023-09-12T11:49:10;8.43;;;7.63;;
63784;SDS011;49927;48.146;11.420;2023-09-12T11:51:37;8.48;;;7.68;;
63784;SDS011;49927;48.146;11.420;2023-09-12T11:54:15;7.97;;;7.05;;
63784;SDS011;49927;48.146;11.420;2023-09-12T11:56:42;10.40;;;6.93;;
63784;SDS011;49927;48.146;11.420;2023-09-12T11:59:09;9.10;;;7.68;;
63784;SDS011;49927;48.146;11.420;2023-09-12T12:01:39;9.43;;;7.55;;
63784;SDS011;49927;48.146;11.420;2023-09-12T12:04:06;9.95;;;7.68;;
63784;SDS011;49927;48.146;11.420;2023-09-12T12:06:33;9.02;;;7.57;;
63784;SDS011;49927;48.146;11.420;2023-09-12T12:09:00;7.90;;;7.10;;
63784;SDS011;49927;48.146;11.420;2023-09-12T12:11:29;8.77;;;7.83;;
63784;SDS011;49927;48.146;11.420;2023-09-12T12:13:56;9.85;;;7.25;;
63784;SDS011;49927;48.146;11.420;2023-09-12T12:16:24;10.23;;;8.13;;
63784;SDS011;49927;48.146;11.420;2023-09-12T12:18:53;8.68;;;6.93;;
63784;SDS011;49927;48.146;11.420;2023-09-12T12:21:19;9.80;;;8.23;;
63784;SDS011;49927;48.146;11.420;2023-09-12T12:23:46;8.25;;;7.45;;
63784;SDS011;49927;48.146;11.420;2023-09-12T12:26:13;9.15;;;6.97;;
63784;SDS011;49927;48.146;11.420;2023-09-12T12:28:41;9.50;;;7.85;;
63784;SDS011;49927;48.146;11.420;2023-09-12T12:31:08;8.02;;;7.10;;
63784;SDS011;49927;48.146;11.420;2023-09-12T12:33:36;8.88;;;7.15;;
63784;SDS011;49927;48.146;11.420;2023-09-12T12:36:26;10.00;;;7.32;;
63784;SDS011;49927;48.146;11.420;2023-09-12T12:38:56;9.90;;;7.30;;
63784;SDS011;49927;48.146;11.420;2023-09-12T12:41:25;9.40;;;7.22;;
63784;SDS011;49927;48.146;11.420;2023-09-12T12:44:03;10.73;;;7.68;;
63784;SDS011;49927;48.146;11.420;2023-09-12T12:46:30;8.27;;;7.35;;
63784;SDS011;49927;48.146;11.420;2023-09-12T12:48:57;9.27;;;7.13;;
63784;SDS011;49927;48.146;11.420;2023-09-12T12:51:25;8.63;;;6.85;;
63784;SDS011;49927;48.146;11.420;2023-09-12T12:53:52;8.00;;;7.20;;
63784;SDS011;49927;48.146;11.420;2023-09-12T12:56:21;7.50;;;6.80;;
63784;SDS011;49927;48.146;11.420;2023-09-12T12:58:49;7.78;;;6.97;;
63784;SDS011;49927;48.146;11.420;2023-09-12T13:01:18;9.80;;;7.55;;
63784;SDS011;49927;48.146;11.420;2023-09-12T13:03:45;8.07;;;6.85;;
63784;SDS011;49927;48.146;11.420;2023-09-12T13:06:13;8.80;;;6.80;;
63784;SDS011;49927;48.146;11.420;2023-09-12T13:08:40;8.30;;;7.35;;
63784;SDS011;49927;48.146;11.420;2023-09-12T13:11:08;8.00;;;6.65;;
63784;SDS011;49927;48.146;11.420;2023-09-12T13:13:35;11.20;;;6.87;;
63784;SDS011;49927;48.146;11.420;2023-09-12T13:16:02;7.32;;;6.63;;
63784;SDS011;49927;48.146;11.420;2023-09-12T13:18:31;8.55;;;6.88;;
63784;SDS011;49927;48.146;11.420;2023-09-12T13:20:58;9.25;;;6.95;;
63784;SDS011;49927;48.146;11.420;2023-09-12T13:23:25;8.27;;;6.82;;
63784;SDS011;49927;48.146;11.420;2023-09-12T13:25:52;9.38;;;7.35;;
63784;SDS011;49927;48.146;11.420;2023-09-12T13:28:19;8.83;;;7.10;;
63784;SDS011;49927;48.146;11.420;2023-09-12T13:30:46;8.57;;;6.93;;
63784;SDS011;49927;48.146;11.420;2023-09-12T13:33:13;7.70;;;6.93;;
63784;SDS011;49927;48.146;11.420;2023-09-12T13:35:41;8.07;;;6.45;;
63784;SDS011;49927;48.146;11.420;2023-09-12T13:38:08;8.45;;;7.15;;
63784;SDS011;49927;48.146;11.420;2023-09-12T13:40:36;8.00;;;7.20;;
63784;SDS011;49927;48.146;11.420;2023-09-12T13:43:03;8.25;;;6.88;;
63784;SDS011;49927;48.146;11.420;2023-09-12T13:45:30;7.78;;;6.60;;
63784;SDS011;49927;48.146;11.420;2023-09-12T13:47:57;6.82;;;6.13;;
63784;SDS011;49927;48.146;11.420;2023-09-12T13:50:24;8.07;;;6.93;;
63784;SDS011;49927;48.146;11.420;2023-09-12T13:52:52;9.20;;;6.68;;
63784;SDS011;49927;48.146;11.420;2023-09-12T13:55:20;8.52;;;6.90;;
63784;SDS011;49927;48.146;11.420;2023-09-12T13:58:06;8.85;;;7.40;;
63784;SDS011;49927;48.146;11.420;2023-09-12T14:00:33;8.67;;;7.30;;
63784;SDS011;49927;48.146;11.420;2023-09-12T14:03:04;8.88;;;6.85;;
63784;SDS011;49927;48.146;11.420;2023-09-12T14:05:31;9.63;;;7.13;;
63784;SDS011;49927;48.146;11.420;2023-09-12T14:08:00;9.13;;;6.30;;
63784;SDS011;49927;48.146;11.420;2023-09-12T14:10:27;9.30;;;6.47;;
63784;SDS011;49927;48.146;11.420;2023-09-12T14:13:02;7.75;;;6.78;;
63784;SDS011;49927;48.146;11.420;2023-09-12T14:15:45;8.18;;;6.47;;
63784;SDS011;49927;48.146;11.420;2023-09-12T14:18:12;7.78;;;7.00;;
63784;SDS011;49927;48.146;11.420;2023-09-12T14:20:39;8.00;;;6.60;;
63784;SDS011;49927;48.146;11.420;2023-09-12T14:23:07;10.80;;;7.38;;
63784;SDS011;49927;48.146;11.420;2023-09-12T14:25:34;9.60;;;6.68;;
63784;SDS011;49927;48.146;11.420;2023-09-12T14:28:01;9.18;;;6.75;;